Rita Ann — WDG4670 — position and weather

sailwx.info

Track history (hours):
 
Tides and Currents Weather Stations Pressure Air Temp Water Temp Dewpoint Dewpoint Depression Visibility Wind Speed Wind Dir Waves Ship Positions

Rita Ann

Owner: D&S Marine Service, LLC, Houma, LA. More information available from US FCC via Universal Licensing System and Coast Guard Vessel Documentation Center.

Last reported at 2018-May-18 10:08 UTC. Time now 2018-May-22 21:16 UTC.
Position N 30°25' W 091°12'.

Length 235 m; draft 3 m.

Type: . MMSI: 367538940.

Date/timePositionNaut miles runAvg speedWind from/ knotsBaromVisibWave heightAir tempDewpointWater temp
2018-May-18 10:08N 30°25' W 091°12'0 0.0
2018-May-18 10:01N 30°25' W 091°12'0 0.0
2018-May-18 09:29N 30°25' W 091°12'0 0.0
2018-May-18 08:58N 30°25' W 091°12'  
2018-May-15 14:46N 29°54' W 092°27'1 4.2
2018-May-15 14:30N 29°54' W 092°28'2 4.2
2018-May-15 14:01N 29°54' W 092°31'2 4.3
2018-May-15 13:31N 29°54' W 092°33'2 4.3
2018-May-15 12:58N 29°55' W 092°36'2 4.3
2018-May-15 12:31N 29°55' W 092°38'2 4.3
2018-May-15 12:00N 29°56' W 092°40'2 4.1
2018-May-15 11:29N 29°57' W 092°42'2 4.0
2018-May-15 11:01N 29°58' W 092°44'2 4.1
2018-May-15 10:30N 29°58' W 092°47'2 4.0
2018-May-15 10:00N 29°58' W 092°49'1 2.6
2018-May-15 09:31N 29°58' W 092°50'2 4.3
2018-May-15 09:01N 29°57' W 092°53'2 4.2
2018-May-15 08:30N 29°56' W 092°55'2 4.0
2018-May-15 08:00N 29°56' W 092°57'2 3.7
2018-May-15 07:31N 29°56' W 092°59'2 4.2
2018-May-15 07:00N 29°56' W 093°02'2 4.4
2018-May-15 06:29N 29°56' W 093°05'2 4.3
2018-May-15 06:01N 29°56' W 093°07'2 4.2
2018-May-15 05:30N 29°56' W 093°09'2 4.2
2018-May-15 05:00N 29°58' W 093°11'2 4.4
2018-May-15 04:30N 29°59' W 093°13'2 3.9
2018-May-15 04:01N 30°01' W 093°14'2 3.8
2018-May-15 03:30N 30°02' W 093°15'1 3.0
2018-May-15 03:00N 30°04' W 093°16'2 3.2
2018-May-15 02:30N 30°05' W 093°17'1 1.8
2018-May-15 02:01N 30°05' W 093°18'1 1.4
2018-May-15 01:31N 30°06' W 093°18'0 0.1
2018-May-15 01:01N 30°06' W 093°18'1 1.7
2018-May-15 00:31N 30°06' W 093°19'2 4.0
2018-May-15 00:01N 30°04' W 093°21'2 3.6
2018-May-14 23:30N 30°04' W 093°23'2 4.3
2018-May-14 23:00N 30°04' W 093°25'2 4.6
2018-May-14 22:30N 30°04' W 093°28'2 4.5
2018-May-14 22:01N 30°04' W 093°30'3 4.5
2018-May-14 21:27N 30°04' W 093°33'2 4.6
2018-May-14 20:56N 30°04' W 093°36'2 4.8
2018-May-14 20:27N 30°04' W 093°39'2 3.5
2018-May-14 19:58N 30°03' W 093°41'2 4.4
2018-May-14 19:30N 30°03' W 093°43'2 4.4
2018-May-14 19:00N 30°02' W 093°44'2 3.6
2018-May-14 18:30N 30°00' W 093°46'0 0.5
2018-May-14 18:01N 30°01' W 093°46'0 0.0
2018-May-14 17:31N 30°01' W 093°46'0 0.0
2018-May-14 17:01N 30°01' W 093°46'0 0.0
2018-May-14 16:31N 30°01' W 093°46'0 0.0
2018-May-14 16:00N 30°01' W 093°46'0 0.2
2018-May-14 15:31N 30°01' W 093°46'2 3.6
2018-May-14 15:00N 30°02' W 093°44'2 4.1
2018-May-14 14:31N 30°03' W 093°43'1 2.8
2018-May-14 14:00N 30°04' W 093°41'2 3.4
2018-May-14 13:31N 30°04' W 093°39'2 3.6
2018-May-14 13:00N 30°04' W 093°37'2 3.9
2018-May-14 12:30N 30°04' W 093°35'2 3.9
2018-May-14 12:00N 30°04' W 093°32'2 3.9
2018-May-14 11:30N 30°04' W 093°30'2 3.9
2018-May-14 11:01N 30°04' W 093°28'1 3.0
2018-May-14 10:30N 30°04' W 093°26'2 4.1
2018-May-14 10:00N 30°04' W 093°24'1 1.6
2018-May-14 09:30N 30°04' W 093°23'0 0.0
2018-May-14 09:01N 30°04' W 093°23'0 0.0
2018-May-14 08:30N 30°04' W 093°23'0 0.0
2018-May-14 08:00N 30°04' W 093°23'0 0.0
2018-May-14 07:30N 30°04' W 093°23'0 0.1
2018-May-14 07:00N 30°04' W 093°23'0 0.2
2018-May-14 06:31N 30°04' W 093°23'0 0.0
2018-May-14 06:00N 30°04' W 093°23'0 0.0
2018-May-14 05:31N 30°04' W 093°23'0 0.1
2018-May-14 05:00N 30°04' W 093°23'1 1.4
2018-May-14 04:31N 30°04' W 093°22'2 3.5
2018-May-14 04:00N 30°05' W 093°20'1 1.7
2018-May-14 03:30N 30°05' W 093°20'1 1.4
2018-May-14 03:01N 30°06' W 093°19'2 3.1
2018-May-14 02:30N 30°05' W 093°18'1 2.1
2018-May-14 02:00N 30°05' W 093°17'0 0.6
2018-May-14 01:30N 30°04' W 093°16'0 0.3
2018-May-14 01:00N 30°04' W 093°16'0 0.9
2018-May-14 00:31N 30°04' W 093°16'2 4.1
2018-May-14 00:00N 30°02' W 093°15'2 4.0
2018-May-13 23:30N 30°00' W 093°14'2 4.3
2018-May-13 23:00N 29°59' W 093°12'2 4.3
2018-May-13 22:30N 29°57' W 093°10'  
2018-May-09 15:00N 29°50' W 091°58'2 3.8
2018-May-09 14:30N 29°50' W 092°00'2 3.5
2018-May-09 14:00N 29°49' W 092°02'2 3.6
2018-May-09 13:30N 29°48' W 092°04'2 3.6
2018-May-09 13:00N 29°48' W 092°06'2 3.3
2018-May-09 12:31N 29°47' W 092°08'2 3.3
2018-May-09 12:00N 29°47' W 092°10'2 3.1
2018-May-09 11:30N 29°47' W 092°12'1 1.7
2018-May-09 11:00N 29°47' W 092°13'1 1.1
2018-May-09 10:31N 29°47' W 092°13'0 0.3
2018-May-09 10:00N 29°47' W 092°13'1 1.2
2018-May-09 09:30N 29°48' W 092°14'0 0.9
2018-May-09 09:00N 29°48' W 092°14'1 1.9
2018-May-09 08:30N 29°48' W 092°15'0 1.0
2018-May-09 08:01N 29°48' W 092°16'0 0.2
2018-May-09 07:30N 29°49' W 092°16'0 0.0
2018-May-09 07:00N 29°49' W 092°16'0 0.0
2018-May-09 06:30N 29°49' W 092°16'0 0.0
2018-May-09 06:00N 29°49' W 092°16'0 0.0
2018-May-09 05:30N 29°49' W 092°16'0 0.0
2018-May-09 04:59N 29°49' W 092°16'1 1.1
2018-May-09 04:30N 29°49' W 092°17'2 3.0
2018-May-09 03:59N 29°50' W 092°18'2 3.2
2018-May-09 03:30N 29°50' W 092°19'2 3.3
2018-May-09 03:00N 29°51' W 092°21'2 3.1
2018-May-09 02:30N 29°52' W 092°22'2 3.3
2018-May-09 02:00N 29°53' W 092°24'2 3.6
2018-May-09 01:29N 29°53' W 092°26'34 3.4
2018-May-08 15:34N 29°56' W 093°05'1 3.5
2018-May-08 15:22N 29°56' W 093°06'1 2.7
2018-May-08 15:01N 29°56' W 093°07'2 3.4
2018-May-08 14:30N 29°56' W 093°09'1 1.8
2018-May-08 14:00N 29°57' W 093°10'1 3.0
2018-May-08 13:30N 29°58' W 093°11'2 3.3
2018-May-08 13:00N 29°59' W 093°12'2 3.3
2018-May-08 12:30N 30°00' W 093°14'2 3.1
2018-May-08 12:00N 30°02' W 093°14'2 3.3
2018-May-08 11:30N 30°03' W 093°16'1 2.9
2018-May-08 11:00N 30°04' W 093°16'1 2.9
2018-May-08 10:30N 30°05' W 093°18'  
Track history (hours):
 
Tides and Currents Weather Stations Pressure Air Temp Water Temp Dewpoint Dewpoint Depression Visibility Wind Speed Wind Dir Waves Ship Positions

Rita Ann

Owner: D&S Marine Service, LLC, Houma, LA. More information available from US FCC via Universal Licensing System and Coast Guard Vessel Documentation Center.

Last reported at 2018-May-18 10:08 UTC. Time now 2018-May-22 21:16 UTC.
Position N 30°25' W 091°12'.

Length 235 m; draft 3 m.

Type: . MMSI: 367538940.

Date/timePositionNaut miles runAvg speedWind from/ knotsBaromVisibWave heightAir tempDewpointWater temp
2018-May-18 10:08N 30°25' W 091°12'0 0.0
2018-May-18 10:01N 30°25' W 091°12'0 0.0
2018-May-18 09:29N 30°25' W 091°12'0 0.0
2018-May-18 08:58N 30°25' W 091°12'  
2018-May-15 14:46N 29°54' W 092°27'1 4.2
2018-May-15 14:30N 29°54' W 092°28'2 4.2
2018-May-15 14:01N 29°54' W 092°31'2 4.3
2018-May-15 13:31N 29°54' W 092°33'2 4.3
2018-May-15 12:58N 29°55' W 092°36'2 4.3
2018-May-15 12:31N 29°55' W 092°38'2 4.3
2018-May-15 12:00N 29°56' W 092°40'2 4.1
2018-May-15 11:29N 29°57' W 092°42'2 4.0
2018-May-15 11:01N 29°58' W 092°44'2 4.1
2018-May-15 10:30N 29°58' W 092°47'2 4.0
2018-May-15 10:00N 29°58' W 092°49'1 2.6
2018-May-15 09:31N 29°58' W 092°50'2 4.3
2018-May-15 09:01N 29°57' W 092°53'2 4.2
2018-May-15 08:30N 29°56' W 092°55'2 4.0
2018-May-15 08:00N 29°56' W 092°57'2 3.7
2018-May-15 07:31N 29°56' W 092°59'2 4.2
2018-May-15 07:00N 29°56' W 093°02'2 4.4
2018-May-15 06:29N 29°56' W 093°05'2 4.3
2018-May-15 06:01N 29°56' W 093°07'2 4.2
2018-May-15 05:30N 29°56' W 093°09'2 4.2
2018-May-15 05:00N 29°58' W 093°11'2 4.4
2018-May-15 04:30N 29°59' W 093°13'2 3.9
2018-May-15 04:01N 30°01' W 093°14'2 3.8
2018-May-15 03:30N 30°02' W 093°15'1 3.0
2018-May-15 03:00N 30°04' W 093°16'2 3.2
2018-May-15 02:30N 30°05' W 093°17'1 1.8
2018-May-15 02:01N 30°05' W 093°18'1 1.4
2018-May-15 01:31N 30°06' W 093°18'0 0.1
2018-May-15 01:01N 30°06' W 093°18'1 1.7
2018-May-15 00:31N 30°06' W 093°19'2 4.0
2018-May-15 00:01N 30°04' W 093°21'2 3.6
2018-May-14 23:30N 30°04' W 093°23'2 4.3
2018-May-14 23:00N 30°04' W 093°25'2 4.6
2018-May-14 22:30N 30°04' W 093°28'2 4.5
2018-May-14 22:01N 30°04' W 093°30'3 4.5
2018-May-14 21:27N 30°04' W 093°33'2 4.6
2018-May-14 20:56N 30°04' W 093°36'2 4.8
2018-May-14 20:27N 30°04' W 093°39'2 3.5
2018-May-14 19:58N 30°03' W 093°41'2 4.4
2018-May-14 19:30N 30°03' W 093°43'2 4.4
2018-May-14 19:00N 30°02' W 093°44'2 3.6
2018-May-14 18:30N 30°00' W 093°46'0 0.5
2018-May-14 18:01N 30°01' W 093°46'0 0.0
2018-May-14 17:31N 30°01' W 093°46'0 0.0
2018-May-14 17:01N 30°01' W 093°46'0 0.0
2018-May-14 16:31N 30°01' W 093°46'0 0.0
2018-May-14 16:00N 30°01' W 093°46'0 0.2
2018-May-14 15:31N 30°01' W 093°46'2 3.6
2018-May-14 15:00N 30°02' W 093°44'2 4.1
2018-May-14 14:31N 30°03' W 093°43'1 2.8
2018-May-14 14:00N 30°04' W 093°41'2 3.4
2018-May-14 13:31N 30°04' W 093°39'2 3.6
2018-May-14 13:00N 30°04' W 093°37'2 3.9
2018-May-14 12:30N 30°04' W 093°35'2 3.9
2018-May-14 12:00N 30°04' W 093°32'2 3.9
2018-May-14 11:30N 30°04' W 093°30'2 3.9
2018-May-14 11:01N 30°04' W 093°28'1 3.0
2018-May-14 10:30N 30°04' W 093°26'2 4.1
2018-May-14 10:00N 30°04' W 093°24'1 1.6
2018-May-14 09:30N 30°04' W 093°23'0 0.0
2018-May-14 09:01N 30°04' W 093°23'0 0.0
2018-May-14 08:30N 30°04' W 093°23'0 0.0
2018-May-14 08:00N 30°04' W 093°23'0 0.0
2018-May-14 07:30N 30°04' W 093°23'0 0.1
2018-May-14 07:00N 30°04' W 093°23'0 0.2
2018-May-14 06:31N 30°04' W 093°23'0 0.0
2018-May-14 06:00N 30°04' W 093°23'0 0.0
2018-May-14 05:31N 30°04' W 093°23'0 0.1
2018-May-14 05:00N 30°04' W 093°23'1 1.4
2018-May-14 04:31N 30°04' W 093°22'2 3.5
2018-May-14 04:00N 30°05' W 093°20'1 1.7
2018-May-14 03:30N 30°05' W 093°20'1 1.4
2018-May-14 03:01N 30°06' W 093°19'2 3.1
2018-May-14 02:30N 30°05' W 093°18'1 2.1
2018-May-14 02:00N 30°05' W 093°17'0 0.6
2018-May-14 01:30N 30°04' W 093°16'0 0.3
2018-May-14 01:00N 30°04' W 093°16'0 0.9
2018-May-14 00:31N 30°04' W 093°16'2 4.1
2018-May-14 00:00N 30°02' W 093°15'2 4.0
2018-May-13 23:30N 30°00' W 093°14'2 4.3
2018-May-13 23:00N 29°59' W 093°12'2 4.3
2018-May-13 22:30N 29°57' W 093°10'  
2018-May-09 15:00N 29°50' W 091°58'2 3.8
2018-May-09 14:30N 29°50' W 092°00'2 3.5
2018-May-09 14:00N 29°49' W 092°02'2 3.6
2018-May-09 13:30N 29°48' W 092°04'2 3.6
2018-May-09 13:00N 29°48' W 092°06'2 3.3
2018-May-09 12:31N 29°47' W 092°08'2 3.3
2018-May-09 12:00N 29°47' W 092°10'2 3.1
2018-May-09 11:30N 29°47' W 092°12'1 1.7
2018-May-09 11:00N 29°47' W 092°13'1 1.1
2018-May-09 10:31N 29°47' W 092°13'0 0.3
2018-May-09 10:00N 29°47' W 092°13'1 1.2
2018-May-09 09:30N 29°48' W 092°14'0 0.9
2018-May-09 09:00N 29°48' W 092°14'1 1.9
2018-May-09 08:30N 29°48' W 092°15'0 1.0
2018-May-09 08:01N 29°48' W 092°16'0 0.2
2018-May-09 07:30N 29°49' W 092°16'0 0.0
2018-May-09 07:00N 29°49' W 092°16'0 0.0
2018-May-09 06:30N 29°49' W 092°16'0 0.0
2018-May-09 06:00N 29°49' W 092°16'0 0.0
2018-May-09 05:30N 29°49' W 092°16'0 0.0
2018-May-09 04:59N 29°49' W 092°16'1 1.1
2018-May-09 04:30N 29°49' W 092°17'2 3.0
2018-May-09 03:59N 29°50' W 092°18'2 3.2
2018-May-09 03:30N 29°50' W 092°19'2 3.3
2018-May-09 03:00N 29°51' W 092°21'2 3.1
2018-May-09 02:30N 29°52' W 092°22'2 3.3
2018-May-09 02:00N 29°53' W 092°24'2 3.6
2018-May-09 01:29N 29°53' W 092°26'34 3.4
2018-May-08 15:34N 29°56' W 093°05'1 3.5
2018-May-08 15:22N 29°56' W 093°06'1 2.7
2018-May-08 15:01N 29°56' W 093°07'2 3.4
2018-May-08 14:30N 29°56' W 093°09'1 1.8
2018-May-08 14:00N 29°57' W 093°10'1 3.0
2018-May-08 13:30N 29°58' W 093°11'2 3.3
2018-May-08 13:00N 29°59' W 093°12'2 3.3
2018-May-08 12:30N 30°00' W 093°14'2 3.1
2018-May-08 12:00N 30°02' W 093°14'2 3.3
2018-May-08 11:30N 30°03' W 093°16'1 2.9
2018-May-08 11:00N 30°04' W 093°16'1 2.9
2018-May-08 10:30N 30°05' W 093°18'  

Dump ship's entire track history